createdAt,value
2019-05-30T00:02:29.821Z,86.40
2019-05-30T00:06:34.715Z,86.40
2019-05-30T00:10:37.743Z,86.60
2019-05-30T00:14:40.765Z,86.00
2019-05-30T00:18:43.789Z,85.80
2019-05-30T00:22:46.805Z,85.30
2019-05-30T00:26:49.948Z,84.40
2019-05-30T00:30:53.016Z,83.90
2019-05-30T00:34:56.031Z,84.50
2019-05-30T00:38:59.759Z,85.20
2019-05-30T00:43:04.104Z,85.80
2019-05-30T00:47:07.409Z,86.00
2019-05-30T00:51:10.415Z,86.30
2019-05-30T00:55:13.674Z,86.30
2019-05-30T00:59:16.695Z,86.80
2019-05-30T01:03:19.709Z,87.20
2019-05-30T01:07:23.799Z,87.60
2019-05-30T01:11:26.817Z,87.40
2019-05-30T01:15:29.840Z,87.60
2019-05-30T01:19:32.848Z,87.30
2019-05-30T01:23:37.918Z,87.30
2019-05-30T01:27:41.019Z,87.60
2019-05-30T01:31:44.020Z,87.60
2019-05-30T01:35:47.049Z,87.80
2019-05-30T01:39:50.349Z,87.50
2019-05-30T01:43:53.449Z,87.70
2019-05-30T01:47:56.505Z,88.00
2019-05-30T01:52:00.339Z,87.90
2019-05-30T01:56:04.740Z,88.00
2019-05-30T02:00:20.022Z,87.90
2019-05-30T02:04:15.699Z,87.90
2019-05-30T02:08:19.947Z,88.20
2019-05-30T02:12:22.943Z,89.10
2019-05-30T02:16:25.957Z,89.30
2019-05-30T02:20:28.947Z,89.20
2019-05-30T02:24:31.947Z,86.70
2019-05-30T02:28:34.947Z,85.40
2019-05-30T02:32:38.156Z,85.40
2019-05-30T02:36:41.178Z,86.30
2019-05-30T02:40:44.191Z,87.60
2019-05-30T02:44:47.565Z,88.30
2019-05-30T02:48:58.675Z,88.20
2019-05-30T02:52:55.486Z,87.20
2019-05-30T02:56:58.505Z,87.50
2019-05-30T03:01:02.305Z,87.20
2019-05-30T03:05:10.842Z,87.70
2019-05-30T03:09:13.182Z,88.40
2019-05-30T03:13:16.334Z,88.30
2019-05-30T03:17:19.340Z,89.60
2019-05-30T03:21:22.390Z,89.30
2019-05-30T03:25:25.403Z,89.40
2019-05-30T03:29:28.408Z,89.80
2019-05-30T03:33:41.011Z,89.10
2019-05-30T03:37:36.340Z,89.00
2019-05-30T03:41:39.773Z,89.10
2019-05-30T03:45:42.815Z,88.90
2019-05-30T03:49:48.625Z,88.70
2019-05-30T03:53:52.666Z,89.10
2019-05-30T03:58:05.657Z,88.70
2019-05-30T04:02:11.743Z,87.70
2019-05-30T04:06:21.791Z,88.30
2019-05-30T04:10:30.106Z,88.20
2019-05-30T04:14:36.929Z,89.10
2019-05-30T04:18:40.060Z,89.90
2019-05-30T04:22:43.130Z,89.40
2019-05-30T04:26:45.150Z,89.00
2019-05-30T04:30:46.202Z,87.30
2019-05-30T04:34:47.232Z,85.90
2019-05-30T04:38:48.469Z,86.40
2019-05-30T04:42:51.592Z,85.90
2019-05-30T04:46:54.623Z,85.60
2019-05-30T04:50:57.727Z,85.50
2019-05-30T04:55:00.744Z,85.20
2019-05-30T04:59:03.797Z,85.10
2019-05-30T05:03:07.011Z,85.40
2019-05-30T05:07:11.453Z,85.10
2019-05-30T05:11:20.731Z,85.00
2019-05-30T05:15:22.786Z,84.90
2019-05-30T05:19:26.629Z,85.80
2019-05-30T05:23:30.000Z,83.60
2019-05-30T05:27:33.012Z,82.90
2019-05-30T05:31:36.054Z,80.70
2019-05-30T05:35:39.064Z,79.30
2019-05-30T05:39:42.081Z,76.30
2019-05-30T05:43:45.092Z,73.20
2019-05-30T05:47:48.100Z,72.90
2019-05-30T05:51:51.112Z,71.50
2019-05-30T05:55:54.387Z,72.80
2019-05-30T05:59:57.398Z,73.40
2019-05-30T06:04:12.513Z,73.80
2019-05-30T06:08:05.312Z,72.10
2019-05-30T06:12:08.962Z,70.30
2019-05-30T06:16:11.967Z,69.30
2019-05-30T06:20:13.406Z,71.50
2019-05-30T06:24:14.416Z,72.20
2019-05-30T06:28:15.464Z,72.60
2019-05-30T06:32:16.469Z,73.50
2019-05-30T06:36:19.541Z,73.40
2019-05-30T06:40:23.723Z,72.70
2019-05-30T06:44:28.041Z,72.40
2019-05-30T06:48:29.242Z,72.60
2019-05-30T06:52:32.279Z,72.10
2019-05-30T06:56:35.268Z,72.60
2019-05-30T07:00:36.265Z,72.70
2019-05-30T07:04:50.942Z,74.10
2019-05-30T07:08:40.240Z,74.00
2019-05-30T07:12:42.564Z,71.90
2019-05-30T07:16:45.568Z,70.80
2019-05-30T07:20:48.575Z,69.00
2019-05-30T07:24:49.577Z,67.80
2019-05-30T07:28:52.588Z,65.70
2019-05-30T07:32:53.629Z,64.70
2019-05-30T07:36:54.658Z,64.30
2019-05-30T07:40:55.667Z,63.30
2019-05-30T07:44:56.796Z,61.70
2019-05-30T07:48:57.819Z,62.60
2019-05-30T07:53:01.230Z,60.80
2019-05-30T07:57:02.548Z,59.70
2019-05-30T08:01:03.552Z,59.00
2019-05-30T08:05:20.748Z,56.00
2019-05-30T08:09:08.717Z,54.00
2019-05-30T08:13:10.887Z,53.20
2019-05-30T08:17:11.903Z,49.40
2019-05-30T08:21:14.909Z,47.10
2019-05-30T08:25:16.107Z,45.60
2019-05-30T08:29:17.113Z,43.30
2019-05-30T08:33:21.404Z,45.50
2019-05-30T08:37:21.094Z,44.40
2019-05-30T08:41:24.201Z,42.00
2019-05-30T08:45:25.794Z,39.90
2019-05-30T08:49:29.897Z,42.60
2019-05-30T08:53:32.610Z,41.30
2019-05-30T08:57:36.668Z,38.30
2019-05-30T09:01:37.835Z,38.30
2019-05-30T09:05:56.553Z,36.80
2019-05-30T09:09:42.266Z,36.90
2019-05-30T09:13:46.613Z,38.20
2019-05-30T09:17:47.847Z,39.00
2019-05-30T09:21:50.879Z,38.40
2019-05-30T09:25:52.215Z,38.20
2019-05-30T09:29:53.228Z,39.80
2019-05-30T09:33:54.236Z,39.90
2019-05-30T09:37:55.443Z,40.40
2019-05-30T09:41:56.458Z,40.70
2019-05-30T09:45:57.510Z,39.70
2019-05-30T09:49:58.540Z,41.50
2019-05-30T09:54:01.696Z,38.70
2019-05-30T09:58:04.720Z,37.80
2019-05-30T10:02:05.932Z,35.70
2019-05-30T10:06:09.032Z,32.60
2019-05-30T10:10:11.622Z,29.60
2019-05-30T10:14:13.819Z,30.40
2019-05-30T10:18:14.840Z,29.40
2019-05-30T10:22:15.889Z,34.40
2019-05-30T10:26:16.904Z,36.00
2019-05-30T10:30:23.286Z,35.10
2019-05-30T10:34:26.319Z,32.00
2019-05-30T10:42:37.488Z,34.70
2019-05-30T10:46:38.792Z,33.00
2019-05-30T10:50:41.886Z,33.20
2019-05-30T10:54:46.343Z,35.20
2019-05-30T10:58:50.762Z,34.20
2019-05-30T11:02:54.986Z,34.40
2019-05-30T11:07:11.419Z,32.90
2019-05-30T11:11:09.795Z,33.60
2019-05-30T11:15:13.104Z,35.10
2019-05-30T11:19:16.109Z,37.70
2019-05-30T11:23:19.193Z,38.70
2019-05-30T11:27:22.399Z,36.00
2019-05-30T11:31:25.500Z,36.60
2019-05-30T11:35:30.132Z,35.00
2019-05-30T11:39:33.230Z,37.10
2019-05-30T11:43:36.761Z,36.60
2019-05-30T11:47:40.676Z,37.80
2019-05-30T11:51:43.756Z,38.40
2019-05-30T11:55:46.905Z,40.00
2019-05-30T11:59:50.138Z,37.20
2019-05-30T12:03:54.356Z,36.10
2019-05-30T12:07:58.837Z,38.20
2019-05-30T12:12:01.996Z,36.90
2019-05-30T12:16:05.008Z,38.00
2019-05-30T12:20:08.547Z,37.30
2019-05-30T12:24:11.548Z,37.00
2019-05-30T12:28:14.648Z,37.10
2019-05-30T12:32:17.653Z,38.10
2019-05-30T12:36:20.734Z,38.40
2019-05-30T12:40:24.849Z,40.00
2019-05-30T12:44:27.893Z,40.60
2019-05-30T12:48:31.194Z,41.20
2019-05-30T12:52:34.373Z,41.70
2019-05-30T12:56:37.458Z,42.70
2019-05-30T13:00:41.368Z,43.30
2019-05-30T13:04:44.467Z,38.70
2019-05-30T13:08:47.478Z,38.30
2019-05-30T13:12:50.489Z,38.10
2019-05-30T13:16:53.506Z,39.00
2019-05-30T13:20:57.755Z,38.40
2019-05-30T13:25:01.905Z,40.20
2019-05-30T13:29:06.380Z,39.50
2019-05-30T13:33:09.547Z,40.20
2019-05-30T13:37:12.554Z,39.40
2019-05-30T13:41:15.560Z,39.30
2019-05-30T13:45:19.320Z,38.60
2019-05-30T13:49:23.615Z,40.00
2019-05-30T13:53:26.621Z,39.20
2019-05-30T13:57:29.645Z,39.90
2019-05-30T14:01:32.654Z,39.60
2019-05-30T14:05:35.660Z,39.40
2019-05-30T14:09:38.791Z,40.00
2019-05-30T14:13:41.892Z,40.70
2019-05-30T14:17:44.912Z,41.30
2019-05-30T14:21:48.070Z,40.30
2019-05-30T14:25:51.071Z,41.60
2019-05-30T14:29:54.171Z,41.40
2019-05-30T14:33:57.269Z,41.70
2019-05-30T14:38:00.282Z,42.00
2019-05-30T14:42:03.296Z,43.00
2019-05-30T14:46:06.366Z,42.80
2019-05-30T14:50:11.047Z,43.50
2019-05-30T14:54:14.298Z,44.20
2019-05-30T14:58:17.829Z,44.00
2019-05-30T15:02:20.984Z,43.70
2019-05-30T15:06:24.002Z,43.30
2019-05-30T15:10:27.001Z,44.10
2019-05-30T15:14:30.054Z,45.10
2019-05-30T15:18:33.131Z,45.00
2019-05-30T15:22:36.146Z,46.00
2019-05-30T15:26:39.161Z,46.00
2019-05-30T15:30:42.227Z,45.20
2019-05-30T15:34:45.252Z,45.90
2019-05-30T15:38:48.255Z,46.80
2019-05-30T15:42:53.185Z,46.70
2019-05-30T15:46:56.600Z,47.30
2019-05-30T15:51:00.187Z,47.80
2019-05-30T15:55:05.197Z,49.00
2019-05-30T15:59:09.480Z,49.20
2019-05-30T16:03:12.683Z,49.70
2019-05-30T16:07:16.704Z,50.00
2019-05-30T16:11:19.840Z,50.30
2019-05-30T16:15:22.860Z,50.20
2019-05-30T16:19:26.558Z,50.60
2019-05-30T16:23:29.656Z,50.80
2019-05-30T16:27:32.699Z,51.20
2019-05-30T16:31:37.451Z,51.70
2019-05-30T16:35:40.566Z,51.60
2019-05-30T16:39:43.703Z,51.00
2019-05-30T16:43:46.791Z,51.00
2019-05-30T16:47:50.036Z,50.80
2019-05-30T16:51:54.058Z,50.90
2019-05-30T16:55:57.090Z,50.40
2019-05-30T17:00:00.099Z,51.80
2019-05-30T17:04:03.404Z,52.60
2019-05-30T17:08:06.494Z,52.70
2019-05-30T17:12:09.503Z,52.90
2019-05-30T17:16:12.516Z,52.70
2019-05-30T17:20:16.427Z,53.00
2019-05-30T17:24:20.909Z,54.40
2019-05-30T17:28:24.420Z,55.60
2019-05-30T17:32:28.010Z,56.50
2019-05-30T17:36:31.171Z,56.70
2019-05-30T17:40:43.679Z,56.90
2019-05-30T17:44:39.209Z,57.60
2019-05-30T17:48:42.286Z,58.10
2019-05-30T17:52:45.807Z,57.50
2019-05-30T17:56:48.920Z,57.50
2019-05-30T18:00:52.047Z,58.30
2019-05-30T18:04:56.219Z,58.80
2019-05-30T18:08:59.323Z,58.80
2019-05-30T18:13:02.467Z,59.00
2019-05-30T18:17:05.460Z,59.00
2019-05-30T18:21:08.468Z,59.10
2019-05-30T18:25:13.276Z,59.40
2019-05-30T18:29:18.950Z,59.20
2019-05-30T18:33:22.133Z,60.60
2019-05-30T18:37:26.233Z,61.30
2019-05-30T18:41:29.371Z,62.00
2019-05-30T18:45:38.259Z,62.50
2019-05-30T18:49:42.064Z,63.40
2019-05-30T18:53:45.970Z,64.20
2019-05-30T18:57:49.066Z,65.40
2019-05-30T19:01:52.135Z,65.70
2019-05-30T19:05:55.141Z,66.70
2019-05-30T19:09:58.152Z,67.10
2019-05-30T19:14:02.038Z,68.10
2019-05-30T19:18:08.427Z,68.20
2019-05-30T19:22:10.079Z,69.00
2019-05-30T19:26:13.196Z,69.50
2019-05-30T19:30:16.600Z,69.80
2019-05-30T19:34:19.629Z,70.30
2019-05-30T19:38:23.243Z,71.10
2019-05-30T19:42:27.209Z,72.10
2019-05-30T19:46:30.333Z,72.80
2019-05-30T19:50:34.670Z,73.90
2019-05-30T19:54:39.230Z,74.40
2019-05-30T19:58:42.210Z,75.20
2019-05-30T20:02:45.288Z,75.60
2019-05-30T20:06:48.402Z,76.20
2019-05-30T20:10:51.401Z,76.90
2019-05-30T20:14:54.501Z,77.20
2019-05-30T20:18:57.595Z,76.80
2019-05-30T20:23:00.707Z,77.00
2019-05-30T20:27:03.712Z,77.10
2019-05-30T20:31:06.716Z,77.30
2019-05-30T20:35:11.292Z,77.70
2019-05-30T20:39:14.361Z,77.50
2019-05-30T20:43:17.530Z,77.50
2019-05-30T20:47:20.623Z,77.40
2019-05-30T20:51:24.279Z,77.50
2019-05-30T20:55:28.223Z,77.80
2019-05-30T20:59:31.236Z,77.70
2019-05-30T21:03:35.521Z,77.60
2019-05-30T21:07:39.898Z,78.70
2019-05-30T21:11:44.472Z,79.70
2019-05-30T21:15:47.987Z,80.70
2019-05-30T21:19:51.030Z,80.90
2019-05-30T21:23:54.160Z,81.10
2019-05-30T21:27:57.193Z,80.50
2019-05-30T21:32:00.360Z,80.60
2019-05-30T21:36:03.566Z,80.80
2019-05-30T21:40:06.890Z,80.40
2019-05-30T21:44:10.068Z,80.10
2019-05-30T21:48:13.093Z,80.00
2019-05-30T21:52:16.156Z,80.40
2019-05-30T21:56:20.191Z,80.90
2019-05-30T22:00:44.970Z,81.20
2019-05-30T22:04:48.652Z,81.50
2019-05-30T22:08:51.837Z,82.30
2019-05-30T22:13:08.835Z,82.70
2019-05-30T22:16:59.776Z,82.90
2019-05-30T22:21:04.213Z,82.70
2019-05-30T22:25:07.704Z,82.90
2019-05-30T22:29:10.711Z,83.00
2019-05-30T22:33:13.737Z,82.90
2019-05-30T22:37:16.810Z,82.80
2019-05-30T22:41:19.811Z,83.40
2019-05-30T22:45:22.817Z,83.60
2019-05-30T22:49:25.845Z,84.00
2019-05-30T22:53:29.466Z,84.30
2019-05-30T22:57:32.944Z,84.50
2019-05-30T23:01:36.035Z,84.20
2019-05-30T23:05:39.032Z,84.20
2019-05-30T23:09:42.044Z,83.90
2019-05-30T23:13:45.711Z,83.90
2019-05-30T23:17:48.940Z,83.90
2019-05-30T23:21:53.236Z,84.00
2019-05-30T23:25:57.358Z,84.10
2019-05-30T23:30:00.471Z,84.10
2019-05-30T23:34:03.582Z,84.20
2019-05-30T23:38:06.588Z,84.10
2019-05-30T23:42:09.673Z,84.60
2019-05-30T23:46:12.673Z,84.30
2019-05-30T23:50:16.868Z,84.20
2019-05-30T23:54:19.939Z,84.10
2019-05-30T23:58:24.055Z,84.30
